Terminal Aerodrome Forecast
Issued by NWS

Home | Current Version | Previous Version | Graphics & Text | Print | Product List | Glossary On
Versions: 1 2 3 4 5 6 7 8 9 10 11 12 13 14
000
FTUS43 KIWX 271743
TAFSBN
TAF
KSBN 271743Z 2718/2818 VRB03KT P6SM BKN030
     FM272000 VRB03KT P6SM SCT035
     FM280900 14003KT 5SM BR SCT150
     FM281500 21006KT P6SM BKN250=

USA.gov is the U.S. government's official web portal to all federal, state and local government web resources and services.